Overview Statistics Trail Chart Weather Telemetry Raw packets
 

This is the latest recevied weather packets stored in our database for station/object IZ2XCK-13. If no packets are shown the sender has not sent any weather packets the latest 10 day(s).

<< 1 2 3 4 5 6 >>
Time Temp. Humidity Pressure Rain* Wind** Luminosity Snow
1788507234 22.22° C 53% 1023.2 hPa - - - -
1788506034 22.22° C 51% 1023.3 hPa - - - -
1788504834 21.67° C 52% 1023.3 hPa - - - -
1788503633 21.11° C 52% 1023.4 hPa - - - -
1788502433 20° C 54% 1023.5 hPa - - - -
1788501233 20° C 52% 1023.4 hPa - - - -
1788500032 20.56° C 49% 1023.3 hPa - - - -
1788498832 20° C 54% 1023.1 hPa - - - -
1788497632 20° C 53% 1022.9 hPa - - - -
1788496432 20.56° C 53% 1022.7 hPa - - - -
1788495231 21.11° C 51% 1022.6 hPa - - - -
1788494031 21.11° C 51% 1022.6 hPa - - - -
1788492831 21.11° C 51% 1022.7 hPa - - - -
1788491630 21.11° C 52% 1022.8 hPa - - - -
1788490430 21.11° C 51% 1022.7 hPa - - - -
1788489230 21.67° C 50% 1022.7 hPa - - - -
1788488029 21.11° C 54% 1022.9 hPa - - - -
1788486829 21.11° C 54% 1022.9 hPa - - - -
1788485629 21.67° C 53% 1022.7 hPa - - - -
1788484428 22.22° C 51% 1022.6 hPa - - - -
1788483228 22.22° C 54% 1022.7 hPa - - - -
1788482028 22.22° C 57% 1022.9 hPa - - - -
1788480827 21.67° C 58% 1023.2 hPa - - - -
1788479627 21.67° C 59% 1023.3 hPa - - - -
1788478427 22.78° C 56% 1023.3 hPa - - - -

* Rain since midnight (hover to see other rain measurements)
** Current wind speed in m/s (hover to see current wind gust speed)